Latest Weather Observations for Georgetown Airport

IDQ60801

Issued at 3:05 pm EST Saturday 23 August 2014 (issued every 30 minutes, with the page automatically refreshed every 10 minutes)

About weather observations | Map of weather stations | Latest weather observations for QLD | Other Formats
Station Details ID: 030124 Name: GEORGETOWN AIRPORT Lat: -18.30 Lon: 143.53 Height: 301.77 m
Data from the previous 72 hours. | See also: Recent months at Georgetown Airport
Date/Time
EST
Temp
°C
App
Temp
°C
Dew
Point
Rel
Hum
%
Delta-T
°C
Wind Press
QNH
hPa
Press
MSL
hPa
Rain
since 9 am
mm
Dir
 
Spd
km/h
Gust
km/h
Spd
kts
Gust
kts
23/03:00pm 30.9 28.6 7.4 23 13.0 SSW 9 17 5 9 1015.0 1013.8 0.0
23/02:30pm 30.5 28.5 7.0 23 12.8 S 7 17 4 9 1015.3 - 0.0
23/02:00pm 30.7 28.0 9.0 26 12.3 S 13 22 7 12 1015.8 - 0.0
23/01:30pm 29.5 27.5 8.5 27 11.7 SSE 9 17 5 9 1016.4 - 0.0
23/01:00pm 30.2 28.8 9.7 28 11.7 NE 7 17 4 9 1016.8 - 0.0
23/12:30pm 28.2 26.3 10.4 33 10.2 SE 11 20 6 11 1017.4 - 0.0
23/12:00pm 27.5 26.3 11.5 37 9.3 SE 9 20 5 11 1018.0 1016.8 0.0
23/11:30am 26.6 24.7 11.9 40 8.5 ENE 13 20 7 11 1018.5 - 0.0
23/11:00am 26.6 25.8 13.0 43 8.1 SE 9 15 5 8 1019.0 - 0.0
23/10:30am 25.2 23.6 12.8 46 7.3 ESE 13 19 7 10 1019.3 - 0.0
23/10:00am 23.5 21.4 12.5 50 6.4 E 15 20 8 11 1019.7 - 0.0
23/09:30am 23.7 22.3 13.3 52 6.1 E 13 20 7 11 1019.8 - 0.0
23/09:00am 21.7 19.7 12.8 57 5.1 ESE 15 24 8 13 1019.6 1018.4 0.0
23/08:30am 21.0 18.8 13.2 61 4.5 ESE 17 24 9 13 1019.4 - 0.0
23/08:00am 20.3 18.8 13.0 63 4.2 ESE 13 20 7 11 1019.2 - 0.0
23/07:30am 18.9 17.5 13.3 70 3.2 ESE 13 22 7 12 1018.7 - 0.0
23/07:00am 18.5 17.5 13.4 72 2.9 ESE 11 17 6 9 1018.3 - 0.0
23/06:30am 18.5 16.8 13.6 73 2.8 E 15 24 8 13 1017.8 - 0.0
23/06:00am 18.6 16.9 13.7 73 2.8 ESE 15 24 8 13 1017.4 1016.2 0.0
23/05:30am 18.6 17.1 14.1 75 2.6 E 15 24 8 13 1017.1 - 0.0
23/05:00am 18.2 17.4 14.1 77 2.4 ESE 11 15 6 8 1016.8 - 0.0
23/04:30am 18.1 17.6 13.8 76 2.5 ESE 9 17 5 9 1016.6 - 0.0
23/04:00am 18.0 17.8 13.7 76 2.5 E 7 11 4 6 1016.3 - 0.0
23/03:30am 18.2 17.9 13.3 73 2.8 E 7 9 4 5 1016.2 - 0.0
23/03:00am 18.8 18.5 13.2 70 3.2 ESE 7 11 4 6 1016.3 1015.1 0.0
23/02:30am 19.5 19.0 13.7 69 3.4 E 9 13 5 7 1016.4 - 0.0
23/02:00am 19.9 19.3 13.6 67 3.7 E 9 13 5 7 1016.6 - 0.0
23/01:30am 20.4 19.5 13.6 65 4.0 E 11 15 6 8 1016.7 - 0.0
23/01:00am 20.9 20.0 13.6 63 4.3 E 11 17 6 9 1016.7 - 0.0
23/12:30am 21.0 20.0 13.4 62 4.4 E 11 15 6 8 1016.9 - 0.0
23/12:00am 21.8 20.6 13.9 61 4.6 ENE 13 17 7 9 1016.9 1015.7 0.0
 
Date/Time
EST
Temp
°C
App
Temp
°C
Dew
Point
Rel
Hum
%
Delta-T
°C
Wind Press
QNH
hPa
Press
MSL
hPa
Rain
since 9 am
mm
Dir
 
Spd
km/h
Gust
km/h
Spd
kts
Gust
kts
22/11:30pm 22.3 20.8 14.2 60 4.8 ENE 15 20 8 11 1016.9 - 0.0
22/11:00pm 23.0 22.1 13.8 56 5.4 E 11 15 6 8 1016.8 - 0.0
22/10:30pm 23.6 22.5 13.2 52 6.1 E 11 17 6 9 1016.8 - 0.0
22/10:00pm 24.2 23.4 12.8 49 6.7 E 9 19 5 10 1016.7 - 0.0
22/09:30pm 24.8 23.2 12.7 47 7.1 E 13 22 7 12 1016.5 - 0.0
22/09:00pm 24.9 24.3 12.2 45 7.4 E 7 9 4 5 1016.5 1015.3 0.0
22/08:30pm 25.2 23.6 11.7 43 7.8 ESE 11 15 6 8 1016.2 - 0.0
22/08:00pm 22.9 21.8 10.7 46 6.8 SSE 7 13 4 7 1015.8 - 0.0
22/07:30pm 22.6 22.5 9.4 43 7.2 CALM 0 0 0 0 1015.4 - 0.0
22/07:00pm 24.2 23.9 8.6 37 8.5 CALM 0 0 0 0 1015.1 - 0.0
22/06:30pm 26.4 26.4 9.7 35 9.4 CALM 0 0 0 0 1014.7 - 0.0
22/06:00pm 28.3 27.6 10.0 32 10.4 WNW 4 7 2 4 1014.5 1013.2 0.0
22/05:30pm 28.6 27.0 10.3 32 10.5 W 9 11 5 6 1014.1 - 0.0
22/05:00pm 27.9 26.8 10.1 33 10.1 WNW 6 7 3 4 1014.1 - 0.0
22/04:30pm 28.1 26.5 10.3 33 10.2 NNW 9 11 5 6 1014.0 - 0.0
22/04:00pm 29.0 27.0 10.2 31 10.8 NNE 11 17 6 9 1014.0 - 0.0
22/03:30pm 29.4 28.1 10.0 30 11.1 N 7 17 4 9 1014.1 - 0.0
22/03:00pm 29.5 27.1 10.1 30 11.1 N 13 19 7 10 1014.3 1013.1 0.0
22/02:30pm 29.0 28.0 11.1 33 10.4 S 7 13 4 7 1014.7 - 0.0
22/02:00pm 27.1 26.5 11.6 38 9.0 ESE 6 11 3 6 1015.2 - 0.0
22/01:30pm 27.1 25.9 11.6 38 9.0 E 9 15 5 8 1015.6 - 0.0
22/01:00pm 27.6 27.2 12.4 39 9.0 SSE 6 13 3 7 1016.2 - 0.0
22/12:30pm 27.6 25.5 12.4 39 9.0 N 15 20 8 11 1016.8 - 0.0
22/12:00pm 26.8 24.8 12.8 42 8.3 NNE 15 22 8 12 1017.3 1016.1 0.0
22/11:30am 25.6 24.4 12.8 45 7.5 N 11 19 6 10 1018.1 - 0.0
22/11:00am 25.1 24.3 13.0 47 7.1 ENE 9 17 5 9 1018.6 - 0.0
22/10:30am 23.8 22.3 13.1 51 6.3 ENE 13 22 7 12 1019.1 - 0.0
22/10:00am 23.7 22.4 13.6 53 6.0 ENE 13 20 7 11 1019.3 - 0.0
22/09:30am 23.0 20.9 13.5 55 5.6 ENE 17 22 9 12 1019.3 - 0.0
22/09:00am 22.4 21.3 14.3 60 4.8 E 13 24 7 13 1019.2 1018.0 0.0
22/08:30am 21.0 18.6 13.9 64 4.2 E 19 24 10 13 1018.9 - 0.0
22/08:00am 20.0 18.8 14.1 69 3.5 E 13 19 7 10 1018.5 - 0.0
22/07:30am 18.7 18.2 13.8 73 2.8 E 9 13 5 7 1018.2 - 0.0
22/07:00am 17.5 17.2 13.4 77 2.3 E 7 11 4 6 1017.5 - 0.0
22/06:30am 17.0 16.3 13.3 79 2.1 E 9 13 5 7 1017.1 - 0.0
22/06:00am 16.9 16.6 13.2 79 2.1 E 7 11 4 6 1016.7 1015.5 0.0
22/05:30am 16.3 15.8 12.7 79 2.0 E 7 7 4 4 1016.4 - 0.0
22/05:00am 17.0 16.8 13.5 80 2.0 ENE 7 9 4 5 1016.1 - 0.0
22/04:30am 16.5 16.6 12.7 78 2.1 NE 4 7 2 4 1015.9 - 0.0
22/04:00am 17.6 17.4 13.1 75 2.6 E 6 6 3 3 1015.8 - 0.0
22/03:30am 18.3 18.0 13.4 73 2.8 E 7 9 4 5 1015.8 - 0.0
22/03:00am 18.2 17.9 13.3 73 2.8 E 7 9 4 5 1015.9 1014.7 0.0
22/02:30am 18.7 18.0 13.3 71 3.1 E 9 15 5 8 1015.9 - 0.0
22/02:00am 19.0 17.5 13.0 68 3.4 ENE 13 17 7 9 1016.2 - 0.0
22/01:30am 20.0 18.2 13.2 65 3.9 ENE 15 20 8 11 1016.1 - 0.0
22/01:00am 19.7 18.8 12.7 64 4.0 E 9 15 5 8 1016.0 - 0.0
22/12:30am 20.1 19.1 12.3 61 4.4 ENE 9 13 5 7 1016.3 - 0.0
22/12:00am 20.5 19.3 9.7 50 5.9 SE 6 9 3 5 1016.3 1015.1 0.0
 
Date/Time
EST
Temp
°C
App
Temp
°C
Dew
Point
Rel
Hum
%
Delta-T
°C
Wind Press
QNH
hPa
Press
MSL
hPa
Rain
since 9 am
mm
Dir
 
Spd
km/h
Gust
km/h
Spd
kts
Gust
kts
21/11:30pm 21.2 19.6 8.8 45 6.6 E 7 11 4 6 1016.4 - 0.0
21/11:00pm 18.7 17.1 7.8 49 5.7 SSE 6 13 3 7 1016.2 - 0.0
21/10:30pm 18.1 17.5 7.2 49 5.6 CALM 0 0 0 0 1016.1 - 0.0
21/10:00pm 18.9 17.5 7.4 47 5.9 S 4 7 2 4 1015.8 - 0.0
21/09:30pm 18.6 16.8 7.1 47 5.9 SSE 6 7 3 4 1015.7 - 0.0
21/09:00pm 20.2 19.6 7.6 44 6.6 CALM 0 0 0 0 1015.6 1014.4 0.0
21/08:30pm 20.3 18.5 7.3 43 6.7 W 6 7 3 4 1015.4 - 0.0
21/08:00pm 20.8 18.8 7.1 41 7.1 W 7 9 4 5 1015.0 - 0.0
21/07:30pm 21.3 19.8 6.8 39 7.5 W 4 6 2 3 1014.8 - 0.0
21/07:00pm 22.4 20.4 7.0 37 8.0 WNW 7 9 4 5 1014.5 - 0.0
21/06:30pm 25.1 24.5 7.3 32 9.5 CALM 0 0 0 0 1013.9 - 0.0
21/06:00pm 26.6 24.2 7.1 29 10.5 W 9 11 5 6 1013.6 1012.4 0.0
21/05:30pm 27.4 24.7 7.3 28 10.9 NW 11 15 6 8 1013.4 - 0.0
21/05:00pm 28.4 25.4 7.6 27 11.4 NW 13 19 7 10 1013.0 - 0.0
21/04:30pm 27.4 24.4 7.8 29 10.7 WNW 13 17 7 9 1013.0 - 0.0
21/04:00pm 29.1 25.8 8.2 27 11.6 NW 15 22 8 12 1012.8 - 0.0
21/03:30pm 28.4 26.4 8.7 29 11.0 W 9 17 5 9 1012.8 - 0.0
21/03:00pm 28.0 25.1 8.3 29 10.9 N 13 17 7 9 1013.0 1011.8 0.0
21/02:30pm 28.3 24.8 8.6 29 10.9 NNW 17 24 9 13 1013.4 - 0.0
21/02:00pm 27.6 25.9 9.9 33 10.0 NW 9 17 5 9 1013.9 - 0.0
21/01:30pm 26.2 22.9 9.5 35 9.3 N 17 26 9 14 1014.5 - 0.0
21/01:00pm 26.6 24.4 9.5 34 9.6 NE 11 20 6 11 1015.1 - 0.0
21/12:30pm 26.0 24.2 11.0 39 8.6 ENE 11 20 6 11 1015.5 - 0.0
21/12:00pm 25.2 23.6 11.7 43 7.8 NNE 11 24 6 13 1016.1 1014.9 0.0
21/11:30am 24.5 22.5 11.5 44 7.4 N 13 20 7 11 1016.7 - 0.0
21/11:00am 23.9 21.4 12.2 48 6.8 NNE 17 26 9 14 1017.1 - 0.0
21/10:30am 24.4 22.0 12.7 48 6.8 NNE 17 26 9 14 1017.5 - 0.0
21/10:00am 23.9 21.3 13.2 51 6.3 NNE 19 30 10 16 1017.7 - 0.0
21/09:30am 22.5 19.5 12.4 52 5.8 NE 20 28 11 15 1017.6 - 0.0
21/09:00am 22.0 18.9 12.3 54 5.6 NE 20 28 11 15 1017.5 1016.3 0.0
21/08:30am 20.7 17.8 12.4 59 4.7 ENE 19 24 10 13 1017.1 - 0.0
21/08:00am 19.5 17.4 12.3 63 4.1 E 15 20 8 11 1016.9 - 0.0
21/07:30am 18.3 16.9 12.3 68 3.4 E 11 15 6 8 1016.6 - 0.0
21/07:00am 17.2 16.1 11.9 71 2.9 E 9 13 5 7 1016.2 - 0.0
21/06:30am 16.9 16.4 12.0 73 2.7 E 6 7 3 4 1015.9 - 0.0
21/06:00am 16.7 15.8 11.4 71 2.9 E 7 9 4 5 1015.5 1014.3 0.0
21/05:30am 17.2 16.4 11.7 70 3.0 E 7 9 4 5 1015.5 - 0.0
21/05:00am 17.7 17.0 11.9 69 3.2 E 7 9 4 5 1015.3 - 0.0
21/04:30am 18.0 16.5 12.0 68 3.4 E 11 15 6 8 1015.2 - 0.0
21/04:00am 18.6 16.9 12.4 67 3.5 ENE 13 19 7 10 1015.1 - 0.0
21/03:30am 18.9 18.3 12.4 66 3.7 E 7 9 4 5 1015.1 - 0.0
21/03:00am 19.2 17.9 12.5 65 3.8 ENE 11 13 6 7 1015.1 1014.0 0.0
21/02:30am 19.6 18.7 12.6 64 4.0 E 9 13 5 7 1015.4 - 0.0
21/02:00am 20.3 18.7 12.8 62 4.3 NE 13 19 7 10 1015.5 - 0.0
21/01:30am 20.3 19.5 12.8 62 4.3 ENE 9 17 5 9 1015.3 - 0.0
21/01:00am 19.6 18.0 10.3 55 5.1 ENE 9 13 5 7 1015.6 - 0.0
21/12:30am 16.8 14.7 8.2 57 4.4 E 9 17 5 9 1015.5 - 0.0
21/12:00am 16.9 16.5 8.3 57 4.4 CALM 0 0 0 0 1015.2 1014.0 0.0
 
Date/Time
EST
Temp
°C
App
Temp
°C
Dew
Point
Rel
Hum
%
Delta-T
°C
Wind Press
QNH
hPa
Press
MSL
hPa
Rain
since 9 am
mm
Dir
 
Spd
km/h
Gust
km/h
Spd
kts
Gust
kts
20/11:30pm 16.5 15.9 7.2 54 4.7 CALM 0 0 0 0 1015.5 - 0.0
20/11:00pm 17.6 17.1 7.9 53 5.0 CALM 0 0 0 0 1015.7 - 0.0
20/10:30pm 18.0 17.4 7.4 50 5.4 CALM 0 0 0 0 1015.8 - 0.0
20/10:00pm 18.2 17.6 7.6 50 5.5 CALM 0 0 0 0 1015.9 - 0.0
20/09:30pm 18.5 17.9 7.3 48 5.7 CALM 0 0 0 0 1015.9 - 0.0
20/09:00pm 19.0 17.4 7.8 48 5.8 SSW 6 6 3 3 1015.5 1014.3 0.0
20/08:30pm 20.3 18.8 8.3 46 6.3 S 6 6 3 3 1015.2 - 0.0
20/08:00pm 21.2 19.6 8.1 43 6.9 WSW 6 7 3 4 1015.0 - 0.0
20/07:30pm 22.6 20.9 8.3 40 7.7 W 7 9 4 5 1014.8 - 0.0
20/07:00pm 24.0 22.3 7.6 35 8.7 W 6 7 3 4 1014.5 - 0.0
20/06:30pm 25.4 22.7 7.5 32 9.6 W 11 15 6 8 1014.3 - 0.0
20/06:00pm 27.0 24.3 7.5 29 10.6 WNW 11 20 6 11 1014.0 1012.7 0.0
20/05:30pm 27.9 24.8 7.2 27 11.2 WNW 13 20 7 11 1013.8 - 0.0
20/05:00pm 28.3 25.3 7.5 27 11.3 WNW 13 20 7 11 1013.7 - 0.0
20/04:30pm 28.5 24.9 8.2 28 11.2 NW 17 28 9 15 1013.6 - 0.0
20/04:00pm 28.7 24.9 8.9 29 11.1 NW 19 26 10 14 1013.5 - 0.0
20/03:30pm 28.3 25.4 9.6 31 10.6 NNW 15 24 8 13 1013.5 - 0.0

Other Formats:

Comma delimited format used in spreadsheet applications
http://www.bom.gov.au/fwo/IDQ60801/IDQ60801.94274.axf

JavaScript Object Notation format (JSON) in row-major order
http://www.bom.gov.au/fwo/IDQ60801/IDQ60801.94274.json